Time;durP1;ratioP1;P1;durP2;ratioP2;P2;SDS_P1;SDS_P2;PMS_P1;PMS_P2;Temp;Humidity;BMP_temperature;BMP_pressure;BME280_temperature;BME280_humidity;BME280_pressure;Samples;Min_cycle;Max_cycle;Signal;HPM_P1;HPM_P2
2023/12/02 00:00:15;;;;;;;;;;;;;;;;;;2208313;63;2570;-28
2023/12/02 00:02:45;;;;;;;;;;;;;;;;;;2212428;58;2555;-28
2023/12/02 00:05:15;;;;;;;;;;;;;;;;;;2211604;66;2606;-28
2023/12/02 00:07:45;;;;;;;;;;;;;;;;;;2208946;59;2434;-28
2023/12/02 00:10:16;;;;;;;;;;;;;;;;;;2211546;59;2350;-27
2023/12/02 00:12:46;;;;;;;;;;;;;;;;;;2212634;66;2397;-28
2023/12/02 00:15:16;;;;;;;;;;;;;;;;;;2208264;59;1898;-28
2023/12/02 00:17:46;;;;;;;;;;;;;;;;;;2209166;66;1799;-28
2023/12/02 00:20:17;;;;;;;;;;;;;;;;;;2207347;66;2484;-28
2023/12/02 00:22:47;;;;;;;;;;;;;;;;;;2209240;66;2461;-28
2023/12/02 00:25:17;;;;;;;;;;;;;;;;;;2212174;66;2033;-29
2023/12/02 00:27:47;;;;;;;;;;;;;;;;;;2208579;59;2340;-29
2023/12/02 00:30:18;;;;;;;;;;;;;;;;;;2208600;59;2375;-28
2023/12/02 00:32:48;;;;;;;;;;;;;;;;;;2209371;59;1823;-28
2023/12/02 00:35:19;;;;;;;;;;;;;;;;;;2208299;59;1832;-28
2023/12/02 00:37:49;;;;;;;;;;;;;;;;;;2212479;66;2099;-28
2023/12/02 00:40:19;;;;;;;;;;;;;;;;;;2208254;58;2329;-29
2023/12/02 00:42:50;;;;;;;;;;;;;;;;;;2213034;66;2389;-28
2023/12/02 00:45:20;;;;;;;;;;;;;;;;;;2208523;59;2510;-29
2023/12/02 00:47:50;;;;;;;;;;;;;;;;;;2212223;66;1962;-28
2023/12/02 00:50:21;;;;;;;;;;;;;;;;;;2211207;66;2038;-29
2023/12/02 00:52:51;;;;;;;;;;;;;;;;;;2208507;66;2322;-29
2023/12/02 00:55:21;;;;;;;;;;;;;;;;;;2208066;66;2491;-29
2023/12/02 00:57:52;;;;;;;;;;;;;;;;;;2208475;66;1913;-29
2023/12/02 01:00:22;;;;;;;;;;;;;;;;;;2208142;66;2423;-29
2023/12/02 01:02:53;;;;;;;;;;;;;;;;;;2208936;59;2921;-29
2023/12/02 01:05:23;;;;;;;;;;;;;;;;;;2208470;66;2552;-29
2023/12/02 01:07:53;;;;;;;;;;;;;;;;;;2212408;66;2096;-29
2023/12/02 01:10:23;;;;;;;;;;;;;;;;;;2211026;66;1781;-29
2023/12/02 01:12:53;;;;;;;;;;;;;;;;;;2205793;66;1786;-29
2023/12/02 01:15:24;;;;;;;;;;;;;;;;;;2208048;59;2699;-29
2023/12/02 01:17:54;;;;;;;;;;;;;;;;;;2208947;66;1707;-29
2023/12/02 01:20:24;;;;;;;;;;;;;;;;;;2211646;59;2116;-30
2023/12/02 01:22:54;;;;;;;;;;;;;;;;;;2208956;66;2008;-30
2023/12/02 01:25:24;;;;;;;;;;;;;;;;;;2211815;66;2107;-29
2023/12/02 01:27:55;;;;;;;;;;;;;;;;;;2212249;58;2053;-29
2023/12/02 01:30:27;;;;;;;;;;;;;;;;;;2212164;59;2360;-29
2023/12/02 01:32:57;;;;;;;;;;;;;;;;;;2212940;58;2034;-29
2023/12/02 01:35:27;;;;;;;;;;;;;;;;;;2211830;58;1856;-29
2023/12/02 01:37:58;;;;;;;;;;;;;;;;;;2212829;66;1818;-29
2023/12/02 01:40:28;;;;;;;;;;;;;;;;;;2211613;58;2456;-29
2023/12/02 01:42:58;;;;;;;;;;;;;;;;;;2212580;66;1943;-29
2023/12/02 01:45:28;;;;;;;;;;;;;;;;;;2212140;66;2498;-29
2023/12/02 01:48:00;;;;;;;;;;;;;;;;;;2212576;66;1642;-28
2023/12/02 01:50:31;;;;;;;;;;;;;;;;;;2211869;66;2317;-29
2023/12/02 01:53:01;;;;;;;;;;;;;;;;;;2208496;59;2422;-30
2023/12/02 01:55:31;;;;;;;;;;;;;;;;;;2208544;66;1884;-29
2023/12/02 01:58:02;;;;;;;;;;;;;;;;;;2211921;66;2255;-29
2023/12/02 02:00:32;;;;;;;;;;;;;;;;;;2212613;66;2085;-29
2023/12/02 02:03:02;;;;;;;;;;;;;;;;;;2208404;59;2414;-28
2023/12/02 02:05:33;;;;;;;;;;;;;;;;;;2212936;66;2019;-29
2023/12/02 02:08:03;;;;;;;;;;;;;;;;;;2212010;66;1836;-29
2023/12/02 02:10:33;;;;;;;;;;;;;;;;;;2208859;66;1775;-29
2023/12/02 02:13:03;;;;;;;;;;;;;;;;;;2212178;58;2464;-29
2023/12/02 02:15:34;;;;;;;;;;;;;;;;;;2208041;59;2041;-29
2023/12/02 02:18:04;;;;;;;;;;;;;;;;;;2208929;66;3217;-29
2023/12/02 02:20:34;;;;;;;;;;;;;;;;;;2212492;66;2492;-29
2023/12/02 02:23:04;;;;;;;;;;;;;;;;;;2205933;66;2470;-29
2023/12/02 02:25:35;;;;;;;;;;;;;;;;;;2209210;66;1813;-29
2023/12/02 02:28:05;;;;;;;;;;;;;;;;;;2212280;58;2446;-29
2023/12/02 02:30:36;;;;;;;;;;;;;;;;;;2212309;66;2409;-29
2023/12/02 02:33:06;;;;;;;;;;;;;;;;;;2212381;58;1944;-30
2023/12/02 02:35:36;;;;;;;;;;;;;;;;;;2209306;66;1887;-30
2023/12/02 02:38:07;;;;;;;;;;;;;;;;;;2211851;66;2460;-29
2023/12/02 02:40:37;;;;;;;;;;;;;;;;;;2212419;58;1824;-29
2023/12/02 02:43:07;;;;;;;;;;;;;;;;;;2212202;66;3382;-29
2023/12/02 02:45:38;;;;;;;;;;;;;;;;;;2209210;59;1796;-30
2023/12/02 02:48:08;;;;;;;;;;;;;;;;;;2208561;66;1703;-30
2023/12/02 02:50:38;;;;;;;;;;;;;;;;;;2208647;66;1993;-30
2023/12/02 02:53:08;;;;;;;;;;;;;;;;;;2208208;66;2327;-30
2023/12/02 02:55:39;;;;;;;;;;;;;;;;;;2209093;66;2471;-30
2023/12/02 02:58:09;;;;;;;;;;;;;;;;;;2208768;66;2511;-30
2023/12/02 03:00:39;;;;;;;;;;;;;;;;;;2213026;66;2178;-30
2023/12/02 03:03:09;;;;;;;;;;;;;;;;;;2212588;59;2539;-30
2023/12/02 03:05:40;;;;;;;;;;;;;;;;;;2212400;66;2257;-30
2023/12/02 03:08:10;;;;;;;;;;;;;;;;;;2211741;59;1813;-30
2023/12/02 03:10:40;;;;;;;;;;;;;;;;;;2208835;66;1824;-30
2023/12/02 03:13:10;;;;;;;;;;;;;;;;;;2208219;66;1871;-30
2023/12/02 03:15:40;;;;;;;;;;;;;;;;;;2212375;58;2311;-30
2023/12/02 03:18:11;;;;;;;;;;;;;;;;;;2212083;66;1628;-30
2023/12/02 03:20:41;;;;;;;;;;;;;;;;;;2209220;66;1947;-30
2023/12/02 03:23:11;;;;;;;;;;;;;;;;;;2209011;66;2007;-30
2023/12/02 03:25:41;;;;;;;;;;;;;;;;;;2209085;58;2347;-30
2023/12/02 03:28:12;;;;;;;;;;;;;;;;;;2212112;58;2100;-30
2023/12/02 03:30:42;;;;;;;;;;;;;;;;;;2209108;59;2353;-30
2023/12/02 03:33:12;;;;;;;;;;;;;;;;;;2212332;58;1854;-30
2023/12/02 03:35:43;;;;;;;;;;;;;;;;;;2212252;66;1878;-30
2023/12/02 03:38:13;;;;;;;;;;;;;;;;;;2211719;66;2216;-30
2023/12/02 03:40:43;;;;;;;;;;;;;;;;;;2212934;58;2427;-30
2023/12/02 03:43:13;;;;;;;;;;;;;;;;;;2206200;66;2069;-29
2023/12/02 03:45:44;;;;;;;;;;;;;;;;;;2209515;66;1858;-30
2023/12/02 03:48:14;;;;;;;;;;;;;;;;;;2208487;66;2299;-30
2023/12/02 03:50:44;;;;;;;;;;;;;;;;;;2208513;61;1924;-29
2023/12/02 03:53:14;;;;;;;;;;;;;;;;;;2212321;66;2213;-30
2023/12/02 03:55:44;;;;;;;;;;;;;;;;;;2212033;66;1665;-30
2023/12/02 03:58:15;;;;;;;;;;;;;;;;;;2208374;66;2236;-30
2023/12/02 04:00:46;;;;;;;;;;;;;;;;;;2212308;66;2544;-30
2023/12/02 04:03:16;;;;;;;;;;;;;;;;;;2212064;58;2402;-30
2023/12/02 04:05:47;;;;;;;;;;;;;;;;;;2208583;66;2091;-30
2023/12/02 04:08:17;;;;;;;;;;;;;;;;;;2207935;59;1847;-30
2023/12/02 04:10:47;;;;;;;;;;;;;;;;;;2212597;66;2105;-29
2023/12/02 04:13:18;;;;;;;;;;;;;;;;;;2211744;66;2358;-30
2023/12/02 04:15:48;;;;;;;;;;;;;;;;;;2212516;58;2108;-29
2023/12/02 04:18:18;;;;;;;;;;;;;;;;;;2212298;59;2527;-30
2023/12/02 04:20:48;;;;;;;;;;;;;;;;;;2212240;66;2562;-30
2023/12/02 04:23:19;;;;;;;;;;;;;;;;;;2207864;66;2329;-30
2023/12/02 04:25:49;;;;;;;;;;;;;;;;;;2212742;59;1929;-30
2023/12/02 04:28:19;;;;;;;;;;;;;;;;;;2211563;59;2358;-30
2023/12/02 04:30:49;;;;;;;;;;;;;;;;;;2211611;66;3188;-30
2023/12/02 04:33:19;;;;;;;;;;;;;;;;;;2212318;58;1960;-30
2023/12/02 04:35:50;;;;;;;;;;;;;;;;;;2209276;59;1890;-30
2023/12/02 04:38:20;;;;;;;;;;;;;;;;;;2207615;59;2295;-30
2023/12/02 04:40:50;;;;;;;;;;;;;;;;;;2212186;58;2193;-30
2023/12/02 04:43:21;;;;;;;;;;;;;;;;;;2208081;66;2226;-30
2023/12/02 04:45:51;;;;;;;;;;;;;;;;;;2212745;66;1650;-30
2023/12/02 04:48:21;;;;;;;;;;;;;;;;;;2211689;66;3142;-30
2023/12/02 04:50:51;;;;;;;;;;;;;;;;;;2212623;59;1995;-30
2023/12/02 04:53:22;;;;;;;;;;;;;;;;;;2208318;66;2508;-30
2023/12/02 04:55:52;;;;;;;;;;;;;;;;;;2209519;66;2283;-30
2023/12/02 04:58:22;;;;;;;;;;;;;;;;;;2208603;66;2283;-30
2023/12/02 05:00:53;;;;;;;;;;;;;;;;;;2212288;66;1996;-30
2023/12/02 05:03:23;;;;;;;;;;;;;;;;;;2214248;53;2473;-24
2023/12/02 05:05:53;;;;;;;;;;;;;;;;;;2214991;66;2089;-25
2023/12/02 05:08:24;;;;;;;;;;;;;;;;;;2214549;58;2639;-25
2023/12/02 05:10:54;;;;;;;;;;;;;;;;;;2215765;66;2103;-25
2023/12/02 05:13:24;;;;;;;;;;;;;;;;;;2215109;66;1850;-24
2023/12/02 05:15:55;;;;;;;;;;;;;;;;;;2214922;58;2427;-24
2023/12/02 05:18:25;;;;;;;;;;;;;;;;;;2214760;66;2356;-23
2023/12/02 05:20:55;;;;;;;;;;;;;;;;;;2215367;66;2393;-23
2023/12/02 05:23:25;;;;;;;;;;;;;;;;;;2215512;66;1993;-23
2023/12/02 05:25:55;;;;;;;;;;;;;;;;;;2214822;66;2340;-23
2023/12/02 05:28:26;;;;;;;;;;;;;;;;;;2215076;58;2102;-23
2023/12/02 05:30:56;;;;;;;;;;;;;;;;;;2214909;59;2324;-22
2023/12/02 05:33:27;;;;;;;;;;;;;;;;;;2215217;58;1873;-22
2023/12/02 05:35:57;;;;;;;;;;;;;;;;;;2212615;66;1872;-22
2023/12/02 05:38:28;;;;;;;;;;;;;;;;;;2215163;66;1899;-22
2023/12/02 05:40:58;;;;;;;;;;;;;;;;;;2215321;58;1873;-22
2023/12/02 05:43:28;;;;;;;;;;;;;;;;;;2214799;59;1929;-21
2023/12/02 05:45:58;;;;;;;;;;;;;;;;;;2215936;66;1859;-22
2023/12/02 05:48:29;;;;;;;;;;;;;;;;;;2214754;59;1870;-22
2023/12/02 05:51:00;;;;;;;;;;;;;;;;;;2215542;58;2519;-22
2023/12/02 05:53:31;;;;;;;;;;;;;;;;;;2214238;58;2278;-22
2023/12/02 05:56:01;;;;;;;;;;;;;;;;;;2214532;59;1806;-22
2023/12/02 05:58:31;;;;;;;;;;;;;;;;;;2214618;66;1943;-22
2023/12/02 06:01:02;;;;;;;;;;;;;;;;;;2214838;58;2114;-22
2023/12/02 06:03:32;;;;;;;;;;;;;;;;;;2213537;58;2578;-22
2023/12/02 06:06:09;;;;;;;;;;;;;;;;;;2214839;66;1958;-23
2023/12/02 06:08:39;;;;;;;;;;;;;;;;;;2215047;58;1941;-22
2023/12/02 06:11:09;;;;;;;;;;;;;;;;;;2214764;66;2215;-23
2023/12/02 06:13:39;;;;;;;;;;;;;;;;;;2214862;66;2379;-23
2023/12/02 06:16:10;;;;;;;;;;;;;;;;;;2216028;58;2443;-23
2023/12/02 06:18:40;;;;;;;;;;;;;;;;;;2213818;59;1809;-23
2023/12/02 06:21:11;;;;;;;;;;;;;;;;;;2215544;66;1780;-23
2023/12/02 06:23:42;;;;;;;;;;;;;;;;;;2214920;66;2447;-23
2023/12/02 06:26:12;;;;;;;;;;;;;;;;;;2212514;59;2228;-23
2023/12/02 06:28:42;;;;;;;;;;;;;;;;;;2214907;58;2144;-23
2023/12/02 06:31:13;;;;;;;;;;;;;;;;;;2215962;59;2508;-23
2023/12/02 06:33:43;;;;;;;;;;;;;;;;;;2214433;58;2849;-23
2023/12/02 06:36:14;;;;;;;;;;;;;;;;;;2216324;66;1860;-23
2023/12/02 06:38:45;;;;;;;;;;;;;;;;;;2213941;66;2108;-24
2023/12/02 06:41:15;;;;;;;;;;;;;;;;;;2215376;58;1903;-24
2023/12/02 06:43:45;;;;;;;;;;;;;;;;;;2211906;66;2347;-24
2023/12/02 06:46:20;;;;;;;;;;;;;;;;;;2212029;66;2035;-24
2023/12/02 06:48:50;;;;;;;;;;;;;;;;;;2215592;66;1948;-24
2023/12/02 06:51:21;;;;;;;;;;;;;;;;;;2214850;58;2208;-24
2023/12/02 06:53:52;;;;;;;;;;;;;;;;;;2215538;58;1929;-24
2023/12/02 06:56:22;;;;;;;;;;;;;;;;;;2215085;58;1901;-25
2023/12/02 06:58:53;;;;;;;;;;;;;;;;;;2214550;66;1803;-24
2023/12/02 07:01:28;;;;;;;;;;;;;;;;;;2214755;58;1959;-24
2023/12/02 07:03:59;;;;;;;;;;;;;;;;;;2215855;58;2330;-25
2023/12/02 07:06:31;;;;;;;;;;;;;;;;;;2214355;66;1932;-25
2023/12/02 07:09:01;;;;;;;;;;;;;;;;;;2214839;58;2441;-24
2023/12/02 07:11:31;;;;;;;;;;;;;;;;;;2215019;66;1965;-35
2023/12/02 07:14:02;;;;;;;;;;;;;;;;;;2215231;58;2239;-25
2023/12/02 07:16:33;;;;;;;;;;;;;;;;;;2214062;66;2058;-25
2023/12/02 07:19:04;;;;;;;;;;;;;;;;;;2214802;59;2570;-25
2023/12/02 07:21:34;;;;;;;;;;;;;;;;;;2213838;66;2104;-25
2023/12/02 07:24:04;;;;;;;;;;;;;;;;;;2214605;66;1952;-25
2023/12/02 07:26:35;;;;;;;;;;;;;;;;;;2216878;58;2252;-25
2023/12/02 07:29:05;;;;;;;;;;;;;;;;;;2211463;59;2521;-25
2023/12/02 07:31:36;;;;;;;;;;;;;;;;;;2213996;58;1926;-25
2023/12/02 07:34:06;;;;;;;;;;;;;;;;;;2214954;59;2188;-25
2023/12/02 07:36:36;;;;;;;;;;;;;;;;;;2214974;66;1850;-25
2023/12/02 07:39:07;;;;;;;;;;;;;;;;;;2214591;66;1925;-25
2023/12/02 07:41:37;;;;;;;;;;;;;;;;;;2213892;59;2375;-25
2023/12/02 07:44:07;;;;;;;;;;;;;;;;;;2214244;59;2089;-25
2023/12/02 07:46:38;;;;;;;;;;;;;;;;;;2213911;66;2315;-25
2023/12/02 07:49:08;;;;;;;;;;;;;;;;;;2214676;66;1963;-25
2023/12/02 07:51:39;;;;;;;;;;;;;;;;;;2213988;66;2405;-25
2023/12/02 07:54:09;;;;;;;;;;;;;;;;;;2214687;66;2456;-25
2023/12/02 07:56:39;;;;;;;;;;;;;;;;;;2214294;59;2201;-25
2023/12/02 07:59:10;;;;;;;;;;;;;;;;;;2214751;66;1970;-25
2023/12/02 08:01:40;;;;;;;;;;;;;;;;;;2213966;66;1959;-25
2023/12/02 08:04:10;;;;;;;;;;;;;;;;;;2214595;59;2418;-25
2023/12/02 08:06:40;;;;;;;;;;;;;;;;;;2214145;59;1923;-24
2023/12/02 08:09:14;;;;;;;;;;;;;;;;;;2215172;66;2143;-25
2023/12/02 08:11:45;;;;;;;;;;;;;;;;;;2213296;66;2477;-25
2023/12/02 08:14:15;;;;;;;;;;;;;;;;;;2215167;59;1845;-24
2023/12/02 08:16:45;;;;;;;;;;;;;;;;;;2214927;66;2444;-25
2023/12/02 08:19:16;;;;;;;;;;;;;;;;;;2214481;66;1907;-25
2023/12/02 08:21:46;;;;;;;;;;;;;;;;;;2214280;66;1995;-25
2023/12/02 08:24:17;;;;;;;;;;;;;;;;;;2215299;59;2072;-25
2023/12/02 08:26:47;;;;;;;;;;;;;;;;;;2211256;66;1941;-25
2023/12/02 08:29:17;;;;;;;;;;;;;;;;;;2215242;58;2301;-25
2023/12/02 08:31:48;;;;;;;;;;;;;;;;;;2214748;58;2595;-25
2023/12/02 08:34:18;;;;;;;;;;;;;;;;;;2214575;58;2241;-25
2023/12/02 08:36:48;;;;;;;;;;;;;;;;;;2214385;58;2420;-25
2023/12/02 08:39:18;;;;;;;;;;;;;;;;;;2215411;58;1900;-25
2023/12/02 08:41:49;;;;;;;;;;;;;;;;;;2215600;58;2007;-25
2023/12/02 08:44:19;;;;;;;;;;;;;;;;;;2215935;59;1832;-25
2023/12/02 08:46:50;;;;;;;;;;;;;;;;;;2215543;66;1873;-25
2023/12/02 08:49:20;;;;;;;;;;;;;;;;;;2216242;66;1771;-25
2023/12/02 08:51:50;;;;;;;;;;;;;;;;;;2215167;58;2361;-25
2023/12/02 08:54:20;;;;;;;;;;;;;;;;;;2215876;66;1852;-25
2023/12/02 08:56:51;;;;;;;;;;;;;;;;;;2215163;66;2396;-25
2023/12/02 08:59:21;;;;;;;;;;;;;;;;;;2216205;66;1752;-25
2023/12/02 09:01:51;;;;;;;;;;;;;;;;;;2214581;59;2389;-25
2023/12/02 09:04:22;;;;;;;;;;;;;;;;;;2215101;58;2136;-25
2023/12/02 09:06:52;;;;;;;;;;;;;;;;;;2214707;66;1788;-25
2023/12/02 09:09:22;;;;;;;;;;;;;;;;;;2215198;58;2162;-25
2023/12/02 09:11:52;;;;;;;;;;;;;;;;;;2215672;66;1922;-25
2023/12/02 09:14:23;;;;;;;;;;;;;;;;;;2215315;58;2284;-25
2023/12/02 09:16:53;;;;;;;;;;;;;;;;;;2215015;66;2225;-25
2023/12/02 09:19:49;;;;;;;;;;;;;;;;;;2215470;66;2377;-26
2023/12/02 09:22:40;;;;;;;;;;;;;;;;;;2215461;66;2488;-25
2023/12/02 09:25:19;;;;;;;;;;;;;;;;;;2213035;66;1752;-25
2023/12/02 09:27:53;;;;;;;;;;;;;;;;;;2214316;59;2380;-25
2023/12/02 09:30:23;;;;;;;;;;;;;;;;;;2215695;66;2683;-25
2023/12/02 09:32:53;;;;;;;;;;;;;;;;;;2211524;59;2317;-24
2023/12/02 09:35:23;;;;;;;;;;;;;;;;;;2215986;66;2257;-24
2023/12/02 09:37:55;;;;;;;;;;;;;;;;;;2214712;66;2000;-24
2023/12/02 09:40:25;;;;;;;;;;;;;;;;;;2216239;58;2505;-24
2023/12/02 09:43:02;;;;;;;;;;;;;;;;;;2214673;66;2549;-24
2023/12/02 09:45:37;;;;;;;;;;;;;;;;;;2215319;66;2407;-24
2023/12/02 09:48:19;;;;;;;;;;;;;;;;;;2215718;58;2165;-24
2023/12/02 09:50:49;;;;;;;;;;;;;;;;;;2215170;58;2199;-25
2023/12/02 09:53:32;;;;;;;;;;;;;;;;;;2215460;58;1797;-25
2023/12/02 09:56:07;;;;;;;;;;;;;;;;;;2215486;59;2198;-26
2023/12/02 09:58:41;;;;;;;;;;;;;;;;;;2215284;58;1828;-25
2023/12/02 10:01:11;;;;;;;;;;;;;;;;;;2215517;66;1835;-25
2023/12/02 10:03:47;;;;;;;;;;;;;;;;;;2216036;58;2252;-24
2023/12/02 10:06:38;;;;;;;;;;;;;;;;;;2212758;66;1781;-24
2023/12/02 10:09:32;;;;;;;;;;;;;;;;;;2215633;59;1876;-24
2023/12/02 10:12:24;;;;;;;;;;;;;;;;;;2214837;66;3218;-24
2023/12/02 10:15:04;;;;;;;;;;;;;;;;;;2214973;66;2379;-24
2023/12/02 10:17:46;;;;;;;;;;;;;;;;;;2215307;66;1890;-24
2023/12/02 10:20:19;;;;;;;;;;;;;;;;;;2215682;58;1859;-24
2023/12/02 10:22:53;;;;;;;;;;;;;;;;;;2215937;59;2349;-24
2023/12/02 10:25:31;;;;;;;;;;;;;;;;;;2216502;66;2012;-25
2023/12/02 10:28:08;;;;;;;;;;;;;;;;;;2215116;58;2061;-24
2023/12/02 10:30:44;;;;;;;;;;;;;;;;;;2214824;59;2401;-24
2023/12/02 10:33:23;;;;;;;;;;;;;;;;;;2215959;58;1774;-24
2023/12/02 10:35:56;;;;;;;;;;;;;;;;;;2214733;66;2294;-24
2023/12/02 10:38:31;;;;;;;;;;;;;;;;;;2215691;66;1774;-24
2023/12/02 10:41:10;;;;;;;;;;;;;;;;;;2215902;58;1975;-24
2023/12/02 10:43:41;;;;;;;;;;;;;;;;;;2214879;66;2385;-24
2023/12/02 10:46:12;;;;;;;;;;;;;;;;;;2215763;66;1805;-24
2023/12/02 10:48:42;;;;;;;;;;;;;;;;;;2214847;66;2276;-24
2023/12/02 10:51:13;;;;;;;;;;;;;;;;;;2215571;66;1683;-24
2023/12/02 10:53:45;;;;;;;;;;;;;;;;;;2215230;66;1319;-25
2023/12/02 10:56:21;;;;;;;;;;;;;;;;;;2214544;66;1213;-25
2023/12/02 10:58:52;;;;;;;;;;;;;;;;;;2213989;66;1300;-25
2023/12/02 11:01:29;;;;;;;;;;;;;;;;;;2215073;66;1713;-25
2023/12/02 11:04:07;;;;;;;;;;;;;;;;;;2218085;54;2528;-29
2023/12/02 11:06:39;;;;;;;;;;;;;;;;;;2207961;58;2828;-29
2023/12/02 11:09:16;;;;;;;;;;;;;;;;;;2213233;58;2099;-29
2023/12/02 11:11:47;;;;;;;;;;;;;;;;;;2212753;58;1908;-29
2023/12/02 11:14:17;;;;;;;;;;;;;;;;;;2210090;58;2453;-29
2023/12/02 11:16:57;;;;;;;;;;;;;;;;;;2208360;59;2037;-29
2023/12/02 11:19:36;;;;;;;;;;;;;;;;;;2213047;66;1921;-29
2023/12/02 11:22:27;;;;;;;;;;;;;;;;;;2212715;58;2166;-29
2023/12/02 11:24:57;;;;;;;;;;;;;;;;;;2212207;58;2305;-29
2023/12/02 11:27:43;;;;;;;;;;;;;;;;;;2212994;58;2337;-29
2023/12/02 11:30:31;;;;;;;;;;;;;;;;;;2212829;59;2419;-29
2023/12/02 11:33:13;;;;;;;;;;;;;;;;;;2212304;58;1646;-29
2023/12/02 11:35:52;;;;;;;;;;;;;;;;;;2212598;66;2503;-29
2023/12/02 11:38:27;;;;;;;;;;;;;;;;;;2209423;59;2059;-29
2023/12/02 11:40:57;;;;;;;;;;;;;;;;;;2208374;59;2702;-29
2023/12/02 11:43:46;;;;;;;;;;;;;;;;;;2209520;66;2475;-29
2023/12/02 11:46:20;;;;;;;;;;;;;;;;;;2209298;66;1808;-29
2023/12/02 11:49:15;;;;;;;;;;;;;;;;;;2211990;66;1747;-28
2023/12/02 11:51:53;;;;;;;;;;;;;;;;;;2208748;66;2301;-28
2023/12/02 11:54:28;;;;;;;;;;;;;;;;;;2212156;66;2126;-29
2023/12/02 11:57:17;;;;;;;;;;;;;;;;;;2211770;59;2903;-29
2023/12/02 11:59:56;;;;;;;;;;;;;;;;;;2208222;66;1903;-29
2023/12/02 12:02:37;;;;;;;;;;;;;;;;;;2209700;59;2405;-29
2023/12/02 12:05:21;;;;;;;;;;;;;;;;;;2206295;59;1745;-29
2023/12/02 12:08:10;;;;;;;;;;;;;;;;;;2212005;66;1805;-29
2023/12/02 12:10:40;;;;;;;;;;;;;;;;;;2212095;66;2242;-28
2023/12/02 12:13:11;;;;;;;;;;;;;;;;;;2211821;66;1985;-29
2023/12/02 12:15:42;;;;;;;;;;;;;;;;;;2212664;58;1998;-28
2023/12/02 12:18:13;;;;;;;;;;;;;;;;;;2212203;59;2270;-29
2023/12/02 12:20:47;;;;;;;;;;;;;;;;;;2211970;66;1828;-28
2023/12/02 12:23:21;;;;;;;;;;;;;;;;;;2208992;66;2457;-29
2023/12/02 12:25:52;;;;;;;;;;;;;;;;;;2212079;58;2006;-29
2023/12/02 12:28:22;;;;;;;;;;;;;;;;;;2209283;59;2743;-28
2023/12/02 12:30:52;;;;;;;;;;;;;;;;;;2211850;59;2521;-29
2023/12/02 12:33:22;;;;;;;;;;;;;;;;;;2212465;58;2258;-29
2023/12/02 12:35:52;;;;;;;;;;;;;;;;;;2208869;66;2245;-28
2023/12/02 12:38:22;;;;;;;;;;;;;;;;;;2212343;66;2256;-28
2023/12/02 12:40:55;;;;;;;;;;;;;;;;;;2208294;59;1833;-28
2023/12/02 12:43:25;;;;;;;;;;;;;;;;;;2208985;59;2420;-28
2023/12/02 12:45:56;;;;;;;;;;;;;;;;;;2211808;66;1626;-29
2023/12/02 12:48:26;;;;;;;;;;;;;;;;;;2208505;66;1681;-29
2023/12/02 12:50:59;;;;;;;;;;;;;;;;;;2208245;66;2143;-28
2023/12/02 12:53:29;;;;;;;;;;;;;;;;;;2212062;58;2366;-28
2023/12/02 12:56:06;;;;;;;;;;;;;;;;;;2212042;58;2616;-28
2023/12/02 12:59:12;;;;;;;;;;;;;;;;;;2211973;59;2242;-28
2023/12/02 13:01:51;;;;;;;;;;;;;;;;;;2196664;67;2171;-28
2023/12/02 13:04:27;;;;;;;;;;;;;;;;;;2211366;59;2672;-28
2023/12/02 13:07:02;;;;;;;;;;;;;;;;;;2212301;66;2556;-29
2023/12/02 13:09:32;;;;;;;;;;;;;;;;;;2208085;66;2042;-29
2023/12/02 13:12:06;;;;;;;;;;;;;;;;;;2208282;66;2504;-29
2023/12/02 13:14:44;;;;;;;;;;;;;;;;;;2209084;59;2101;-28
2023/12/02 13:17:14;;;;;;;;;;;;;;;;;;2211939;66;1894;-28
2023/12/02 13:19:45;;;;;;;;;;;;;;;;;;2206794;59;2273;-29
2023/12/02 13:22:16;;;;;;;;;;;;;;;;;;2209723;66;2646;-29
2023/12/02 13:24:49;;;;;;;;;;;;;;;;;;2211651;66;3879;-29
2023/12/02 13:27:26;;;;;;;;;;;;;;;;;;2209314;66;1831;-29
2023/12/02 13:29:57;;;;;;;;;;;;;;;;;;2211721;58;2326;-28
2023/12/02 13:32:29;;;;;;;;;;;;;;;;;;2213195;58;1763;-28
2023/12/02 13:35:04;;;;;;;;;;;;;;;;;;2212669;58;2284;-29
2023/12/02 13:37:53;;;;;;;;;;;;;;;;;;2211993;66;2383;-29
2023/12/02 13:40:26;;;;;;;;;;;;;;;;;;2209597;58;1931;-29
2023/12/02 13:42:58;;;;;;;;;;;;;;;;;;2209413;59;1940;-29
2023/12/02 13:45:29;;;;;;;;;;;;;;;;;;2212886;66;2431;-29
2023/12/02 13:48:07;;;;;;;;;;;;;;;;;;2212427;66;2101;-29
2023/12/02 13:51:07;;;;;;;;;;;;;;;;;;2213313;66;1884;-28
2023/12/02 13:53:47;;;;;;;;;;;;;;;;;;2210559;59;1832;-29
2023/12/02 13:56:26;;;;;;;;;;;;;;;;;;2209742;66;1867;-29
2023/12/02 13:59:05;;;;;;;;;;;;;;;;;;2213856;66;2823;-28
2023/12/02 14:01:41;;;;;;;;;;;;;;;;;;2213109;59;1828;-30
2023/12/02 14:04:13;;;;;;;;;;;;;;;;;;2209862;59;2640;-30
2023/12/02 14:06:50;;;;;;;;;;;;;;;;;;2208844;66;2595;-30
2023/12/02 14:09:22;;;;;;;;;;;;;;;;;;2213338;66;1963;-30
2023/12/02 14:12:07;;;;;;;;;;;;;;;;;;2212092;66;2297;-30
2023/12/02 14:14:56;;;;;;;;;;;;;;;;;;2213281;66;1780;-30
2023/12/02 14:17:37;;;;;;;;;;;;;;;;;;2213222;66;2546;-30
2023/12/02 14:20:17;;;;;;;;;;;;;;;;;;2208705;66;1707;-29
2023/12/02 14:23:23;;;;;;;;;;;;;;;;;;2212753;66;2710;-29
2023/12/02 14:25:59;;;;;;;;;;;;;;;;;;2190298;67;3073;-29
2023/12/02 14:28:45;;;;;;;;;;;;;;;;;;2209595;59;2597;-30
2023/12/02 14:31:15;;;;;;;;;;;;;;;;;;2208298;59;2449;-29
2023/12/02 14:34:09;;;;;;;;;;;;;;;;;;2209154;59;2610;-29
2023/12/02 14:37:04;;;;;;;;;;;;;;;;;;2208761;59;2881;-29
2023/12/02 14:39:35;;;;;;;;;;;;;;;;;;2209077;66;1772;-29
2023/12/02 14:42:08;;;;;;;;;;;;;;;;;;2213027;58;2199;-29
2023/12/02 14:44:40;;;;;;;;;;;;;;;;;;2212980;66;2086;-30
2023/12/02 14:47:12;;;;;;;;;;;;;;;;;;2208876;66;1827;-30
2023/12/02 14:49:44;;;;;;;;;;;;;;;;;;2213329;66;1817;-30
2023/12/02 14:52:17;;;;;;;;;;;;;;;;;;2212671;58;1770;-29
2023/12/02 14:54:49;;;;;;;;;;;;;;;;;;2209214;59;1988;-30
2023/12/02 14:57:21;;;;;;;;;;;;;;;;;;2212982;66;2220;-29
2023/12/02 14:59:52;;;;;;;;;;;;;;;;;;2212147;66;2224;-29
2023/12/02 15:02:42;;;;;;;;;;;;;;;;;;2206543;59;2167;-29
2023/12/02 15:05:14;;;;;;;;;;;;;;;;;;2211894;66;1958;-30
2023/12/02 15:07:46;;;;;;;;;;;;;;;;;;2205203;66;2307;-29
2023/12/02 15:10:16;;;;;;;;;;;;;;;;;;2212779;66;1945;-29
2023/12/02 15:12:50;;;;;;;;;;;;;;;;;;2208463;66;2393;-29
2023/12/02 15:15:33;;;;;;;;;;;;;;;;;;2209608;59;1794;-30
2023/12/02 15:18:04;;;;;;;;;;;;;;;;;;2209001;66;1863;-29
2023/12/02 15:20:34;;;;;;;;;;;;;;;;;;2212688;66;1115;-29
2023/12/02 15:23:16;;;;;;;;;;;;;;;;;;2211968;66;1931;-29
2023/12/02 15:25:47;;;;;;;;;;;;;;;;;;2208882;66;1609;-29
2023/12/02 15:28:18;;;;;;;;;;;;;;;;;;2212677;58;1966;-28
2023/12/02 15:30:48;;;;;;;;;;;;;;;;;;2207783;59;2203;-29
2023/12/02 15:33:21;;;;;;;;;;;;;;;;;;2212930;58;1378;-28
2023/12/02 15:35:52;;;;;;;;;;;;;;;;;;2207542;66;1396;-28
2023/12/02 15:38:22;;;;;;;;;;;;;;;;;;2212233;66;2138;-28
2023/12/02 15:40:52;;;;;;;;;;;;;;;;;;2212153;58;1637;-26
2023/12/02 15:43:23;;;;;;;;;;;;;;;;;;2212785;66;1983;-26
2023/12/02 15:45:53;;;;;;;;;;;;;;;;;;2212243;66;1196;-25
2023/12/02 15:48:23;;;;;;;;;;;;;;;;;;2209605;66;1260;-25
2023/12/02 15:50:53;;;;;;;;;;;;;;;;;;2212133;66;1361;-25
2023/12/02 15:53:25;;;;;;;;;;;;;;;;;;2212518;66;1262;-25
2023/12/02 15:55:57;;;;;;;;;;;;;;;;;;2212006;66;1340;-25
2023/12/02 15:58:27;;;;;;;;;;;;;;;;;;2208836;66;1221;-25
2023/12/02 16:01:01;;;;;;;;;;;;;;;;;;2208819;66;1472;-25
2023/12/02 16:03:31;;;;;;;;;;;;;;;;;;2208964;58;2336;-25
2023/12/02 16:06:02;;;;;;;;;;;;;;;;;;2208747;59;1332;-24
2023/12/02 16:08:33;;;;;;;;;;;;;;;;;;2208957;66;1476;-24
2023/12/02 16:11:04;;;;;;;;;;;;;;;;;;2212604;66;1541;-24
2023/12/02 16:13:39;;;;;;;;;;;;;;;;;;2212385;66;1418;-24
2023/12/02 16:16:10;;;;;;;;;;;;;;;;;;2208883;59;1689;-24
2023/12/02 16:18:40;;;;;;;;;;;;;;;;;;2208445;66;1149;-24
2023/12/02 16:21:16;;;;;;;;;;;;;;;;;;2212151;66;1369;-24
2023/12/02 16:23:47;;;;;;;;;;;;;;;;;;2209357;66;1953;-24
2023/12/02 16:26:17;;;;;;;;;;;;;;;;;;2212546;66;1645;-24
2023/12/02 16:28:48;;;;;;;;;;;;;;;;;;2208290;58;2281;-23
2023/12/02 16:31:25;;;;;;;;;;;;;;;;;;2212787;66;1448;-24
2023/12/02 16:33:56;;;;;;;;;;;;;;;;;;2205577;59;1392;-23
2023/12/02 16:36:26;;;;;;;;;;;;;;;;;;2209234;66;1415;-24
2023/12/02 16:38:56;;;;;;;;;;;;;;;;;;2208098;66;1627;-24
2023/12/02 16:41:26;;;;;;;;;;;;;;;;;;2212459;66;1720;-24
2023/12/02 16:43:57;;;;;;;;;;;;;;;;;;2208701;66;1937;-24
2023/12/02 16:46:27;;;;;;;;;;;;;;;;;;2212723;66;1211;-24
2023/12/02 16:48:57;;;;;;;;;;;;;;;;;;2212196;58;1643;-24
2023/12/02 16:51:28;;;;;;;;;;;;;;;;;;2209519;59;1313;-24
2023/12/02 16:53:58;;;;;;;;;;;;;;;;;;2212438;58;1602;-24
2023/12/02 16:56:29;;;;;;;;;;;;;;;;;;2212020;59;1225;-24
2023/12/02 16:58:59;;;;;;;;;;;;;;;;;;2208982;66;1508;-24
2023/12/02 17:01:32;;;;;;;;;;;;;;;;;;2212894;59;1298;-24
2023/12/02 17:04:04;;;;;;;;;;;;;;;;;;2212117;58;2322;-24
2023/12/02 17:06:34;;;;;;;;;;;;;;;;;;2205432;66;1257;-23
2023/12/02 17:09:06;;;;;;;;;;;;;;;;;;2208880;58;2420;-24
2023/12/02 17:11:39;;;;;;;;;;;;;;;;;;2209989;59;1493;-24
2023/12/02 17:14:15;;;;;;;;;;;;;;;;;;2212024;58;2192;-23
2023/12/02 17:16:52;;;;;;;;;;;;;;;;;;2209665;59;2023;-23
2023/12/02 17:19:25;;;;;;;;;;;;;;;;;;2213138;58;1307;-23
2023/12/02 17:21:58;;;;;;;;;;;;;;;;;;2209478;66;1618;-24
2023/12/02 17:24:36;;;;;;;;;;;;;;;;;;2211977;59;1925;-24
2023/12/02 17:27:08;;;;;;;;;;;;;;;;;;2212498;59;1223;-24
2023/12/02 17:29:40;;;;;;;;;;;;;;;;;;2208240;59;2377;-24
2023/12/02 17:32:11;;;;;;;;;;;;;;;;;;2211882;58;1219;-23
2023/12/02 17:34:41;;;;;;;;;;;;;;;;;;2212880;58;1213;-23
2023/12/02 17:37:12;;;;;;;;;;;;;;;;;;2206196;66;1546;-23
2023/12/02 17:39:42;;;;;;;;;;;;;;;;;;2206903;66;1666;-23